createdAt,value
2018-08-06T00:00:02.317Z,59.62
2018-08-06T00:01:12.468Z,59.91
2018-08-06T00:02:22.592Z,59.62
2018-08-06T00:03:32.784Z,60
2018-08-06T00:04:42.929Z,60.49
2018-08-06T00:05:53.069Z,60.49
2018-08-06T00:07:03.281Z,60.17
2018-08-06T00:08:13.467Z,60.3
2018-08-06T00:09:23.666Z,60.36
2018-08-06T00:10:34.041Z,60.75
2018-08-06T00:11:45.151Z,60.65
2018-08-06T00:12:55.389Z,60.84
2018-08-06T00:14:05.569Z,60.94
2018-08-06T00:15:16.083Z,60.94
2018-08-06T00:16:27.220Z,60.87
2018-08-06T00:17:37.337Z,60.84
2018-08-06T00:18:47.515Z,60.84
2018-08-06T00:19:57.735Z,60.65
2018-08-06T00:21:07.890Z,60.75
2018-08-06T00:22:18.040Z,60.84
2018-08-06T00:23:28.191Z,60.46
2018-08-06T00:24:37.962Z,60.55
2018-08-06T00:25:48.190Z,60.46
2018-08-06T00:26:58.412Z,60.65
2018-08-06T00:28:08.288Z,61.04
2018-08-06T00:29:18.211Z,60.65
2018-08-06T00:30:28.334Z,60.55
2018-08-06T00:31:38.221Z,60.65
2018-08-06T00:32:48.470Z,60.65
2018-08-06T00:33:58.733Z,60.94
2018-08-06T00:35:08.922Z,61.04
2018-08-06T00:36:19.062Z,61.32
2018-08-06T00:37:28.945Z,61.32
2018-08-06T00:38:39.246Z,61.32
2018-08-06T00:39:49.464Z,61.52
2018-08-06T00:41:00.643Z,61.8
2018-08-06T00:42:10.805Z,61.8
2018-08-06T00:43:20.976Z,61.77
2018-08-06T00:44:31.092Z,61.71
2018-08-06T00:45:41.272Z,61.8
2018-08-06T00:46:51.413Z,61.68
2018-08-06T00:48:01.549Z,62.16
2018-08-06T00:49:11.681Z,62.06
2018-08-06T00:50:21.857Z,62.16
2018-08-06T00:51:32.019Z,62.16
2018-08-06T00:52:42.257Z,61.97
2018-08-06T00:53:52.496Z,62.74
2018-08-06T00:55:02.293Z,62.06
2018-08-06T00:56:12.512Z,62.93
2018-08-06T00:57:22.672Z,62.74
2018-08-06T00:58:32.841Z,62.93
2018-08-06T00:59:42.993Z,62.93
2018-08-06T01:00:53.179Z,62.74
2018-08-06T01:02:03.300Z,62.74
2018-08-06T01:03:13.413Z,62.93
2018-08-06T01:04:23.526Z,62.26
2018-08-06T01:05:33.653Z,62.83
2018-08-06T01:06:43.802Z,62.74
2018-08-06T01:07:53.959Z,62.83
2018-08-06T01:09:03.843Z,62.74
2018-08-06T01:10:13.652Z,62.83
2018-08-06T01:11:23.936Z,62.64
2018-08-06T01:12:34.160Z,63.02
2018-08-06T01:13:44.382Z,63.02
2018-08-06T01:14:54.605Z,63.31
2018-08-06T01:16:04.810Z,63.31
2018-08-06T01:17:15.034Z,62.54
2018-08-06T01:18:25.169Z,63.02
2018-08-06T01:19:35.300Z,62.54
2018-08-06T01:20:45.204Z,62.64
2018-08-06T01:21:55.418Z,62.93
2018-08-06T01:23:05.302Z,62.45
2018-08-06T01:24:15.458Z,62.74
2018-08-06T01:25:25.573Z,62.83
2018-08-06T01:26:35.768Z,62.64
2018-08-06T01:27:45.918Z,62.45
2018-08-06T01:28:56.075Z,62.61
2018-08-06T01:30:06.247Z,62.61
2018-08-06T01:31:16.367Z,62.99
2018-08-06T01:32:26.237Z,62.9
2018-08-06T01:33:36.363Z,63.48
2018-08-06T01:34:46.476Z,63.48
2018-08-06T01:35:57.525Z,63.86
2018-08-06T01:37:07.879Z,63.57
2018-08-06T01:38:18.066Z,63.57
2018-08-06T01:39:28.252Z,63.76
2018-08-06T01:40:38.488Z,63.95
2018-08-06T01:41:48.403Z,63.76
2018-08-06T01:42:58.579Z,63.95
2018-08-06T01:44:08.715Z,64.25
2018-08-06T01:45:18.940Z,64.05
2018-08-06T01:46:28.804Z,64.25
2018-08-06T01:47:38.944Z,64.15
2018-08-06T01:48:49.088Z,64.25
2018-08-06T01:49:59.282Z,64.25
2018-08-06T01:51:09.432Z,64.05
2018-08-06T01:52:19.597Z,64.43
2018-08-06T01:53:29.714Z,64.34
2018-08-06T01:54:39.494Z,64.73
2018-08-06T01:55:49.659Z,64.43
2018-08-06T01:56:59.295Z,64.53
2018-08-06T01:58:09.471Z,64.53
2018-08-06T01:59:19.673Z,65.17
2018-08-06T02:00:29.916Z,64.5
2018-08-06T02:01:40.062Z,64.79
2018-08-06T02:02:49.863Z,64.73
2018-08-06T02:04:00.102Z,64.92
2018-08-06T02:05:10.235Z,65.2
2018-08-06T02:06:20.595Z,65.11
2018-08-06T02:07:30.791Z,65.2
2018-08-06T02:08:40.922Z,65.4
2018-08-06T02:09:51.203Z,65.3
2018-08-06T02:11:01.343Z,64.98
2018-08-06T02:12:11.489Z,65.11
2018-08-06T02:13:21.611Z,64.98
2018-08-06T02:14:31.732Z,65.2
2018-08-06T02:15:41.904Z,64.73
2018-08-06T02:16:52.066Z,64.43
2018-08-06T02:18:02.239Z,64.5
2018-08-06T02:19:12.369Z,64.53
2018-08-06T02:20:22.661Z,64.82
2018-08-06T02:21:32.837Z,64.43
2018-08-06T02:22:42.730Z,64.63
2018-08-06T02:23:52.892Z,64.63
2018-08-06T02:25:03.143Z,64.5
2018-08-06T02:26:13.008Z,64.43
2018-08-06T02:27:23.157Z,64.5
2018-08-06T02:28:33.308Z,64.73
2018-08-06T02:29:43.547Z,64.82
2018-08-06T02:30:53.775Z,64.4
2018-08-06T02:32:03.963Z,64.63
2018-08-06T02:33:14.223Z,64.6
2018-08-06T02:34:23.837Z,64.4
2018-08-06T02:35:33.737Z,64.43
2018-08-06T02:36:43.936Z,64.53
2018-08-06T02:37:54.071Z,64.53
2018-08-06T02:39:04.308Z,64.31
2018-08-06T02:40:14.537Z,64.4
2018-08-06T02:41:24.700Z,64.69
2018-08-06T02:42:34.930Z,64.79
2018-08-06T02:43:45.214Z,64.5
2018-08-06T02:44:56.388Z,64.5
2018-08-06T02:46:06.560Z,64.53
2018-08-06T02:47:16.430Z,64.05
2018-08-06T02:48:26.652Z,64.02
2018-08-06T02:49:36.840Z,64.25
2018-08-06T02:50:47.033Z,64.5
2018-08-06T02:51:57.162Z,64.31
2018-08-06T02:53:07.355Z,64.5
2018-08-06T02:54:17.502Z,64.5
2018-08-06T02:55:27.517Z,64.79
2018-08-06T02:56:37.697Z,64.79
2018-08-06T02:57:47.843Z,64.69
2018-08-06T02:58:57.833Z,64.02
2018-08-06T03:00:08.039Z,64.02
2018-08-06T03:01:18.555Z,64.6
2018-08-06T03:02:28.411Z,64.22
2018-08-06T03:03:38.553Z,64.5
2018-08-06T03:04:48.691Z,64.31
2018-08-06T03:05:58.937Z,64.79
2018-08-06T03:07:09.116Z,64.5
2018-08-06T03:08:18.984Z,64.31
2018-08-06T03:09:29.820Z,64.22
2018-08-06T03:10:39.467Z,64.89
2018-08-06T03:11:49.695Z,64.31
2018-08-06T03:12:59.870Z,64.6
2018-08-06T03:14:09.737Z,64.69
2018-08-06T03:15:19.863Z,64.69
2018-08-06T03:16:30.048Z,64.69
2018-08-06T03:17:40.276Z,64.69
2018-08-06T03:18:50.478Z,64.5
2018-08-06T03:20:00.632Z,64.89
2018-08-06T03:21:10.829Z,64.85
2018-08-06T03:22:21.077Z,64.95
2018-08-06T03:23:31.261Z,65.23
2018-08-06T03:24:41.482Z,64.76
2018-08-06T03:25:51.618Z,65.05
2018-08-06T03:27:01.759Z,65.43
2018-08-06T03:28:11.875Z,65.81
2018-08-06T03:29:22.068Z,66
2018-08-06T03:30:32.219Z,65.72
2018-08-06T03:31:42.079Z,66
2018-08-06T03:32:52.266Z,66.39
2018-08-06T03:34:02.402Z,66.1
2018-08-06T03:35:12.516Z,66.07
2018-08-06T03:36:22.757Z,66.55
2018-08-06T03:37:32.632Z,66.49
2018-08-06T03:38:42.771Z,66.39
2018-08-06T03:39:52.911Z,66.07
2018-08-06T03:41:02.797Z,66.64
2018-08-06T03:42:12.928Z,66.07
2018-08-06T03:43:22.796Z,66.46
2018-08-06T03:44:32.928Z,66.16
2018-08-06T03:45:42.694Z,66.26
2018-08-06T03:46:52.836Z,66.26
2018-08-06T03:48:02.741Z,66.16
2018-08-06T03:49:12.855Z,66.16
2018-08-06T03:50:22.769Z,66.26
2018-08-06T03:51:32.887Z,66.26
2018-08-06T03:52:43.119Z,66.84
2018-08-06T03:53:53.131Z,66.55
2018-08-06T03:55:03.374Z,66.68
2018-08-06T03:56:13.544Z,66.74
2018-08-06T03:57:24.668Z,66.68
2018-08-06T03:58:35.026Z,66.64
2018-08-06T03:59:45.351Z,66.87
2018-08-06T04:00:55.469Z,66.68
2018-08-06T04:02:05.359Z,66.68
2018-08-06T04:03:15.476Z,66.68
2018-08-06T04:04:25.705Z,66.68
2018-08-06T04:05:35.919Z,66.3
2018-08-06T04:06:46.116Z,66.97
2018-08-06T04:07:56.377Z,66.77
2018-08-06T04:09:06.522Z,66.68
2018-08-06T04:10:16.687Z,66.77
2018-08-06T04:11:26.622Z,66.49
2018-08-06T04:12:36.734Z,66.77
2018-08-06T04:13:46.972Z,66.58
2018-08-06T04:14:57.087Z,66.68
2018-08-06T04:16:07.386Z,66.68
2018-08-06T04:17:17.513Z,66.68
2018-08-06T04:18:27.682Z,66.77
2018-08-06T04:19:37.602Z,66.87
2018-08-06T04:20:47.980Z,66.49
2018-08-06T04:21:58.115Z,66.68
2018-08-06T04:23:08.285Z,67.07
2018-08-06T04:24:18.403Z,67.25
2018-08-06T04:25:28.541Z,66.68
2018-08-06T04:26:38.827Z,66.77
2018-08-06T04:27:48.997Z,66.68
2018-08-06T04:28:59.309Z,66.68
2018-08-06T04:30:09.466Z,66.49
2018-08-06T04:31:19.598Z,66.23
2018-08-06T04:32:29.704Z,66.33
2018-08-06T04:33:39.857Z,66.61
2018-08-06T04:34:49.992Z,66.58
2018-08-06T04:36:00.148Z,66.2
2018-08-06T04:37:10.352Z,66.2
2018-08-06T04:38:20.432Z,66.2
2018-08-06T04:39:30.557Z,66.1
2018-08-06T04:40:41.657Z,66.1
2018-08-06T04:41:51.605Z,66.2
2018-08-06T04:43:01.725Z,66.1
2018-08-06T04:44:11.837Z,66
2018-08-06T04:45:21.985Z,66.2
2018-08-06T04:46:32.339Z,66.3
2018-08-06T04:47:42.489Z,66.33
2018-08-06T04:48:52.605Z,66.04
2018-08-06T04:50:02.576Z,66.14
2018-08-06T04:51:12.727Z,66.33
2018-08-06T04:52:22.869Z,66.23
2018-08-06T04:53:33.088Z,66.52
2018-08-06T04:54:43.222Z,66.71
2018-08-06T04:55:53.404Z,66.52
2018-08-06T04:57:03.559Z,66.71
2018-08-06T04:58:13.726Z,66.33
2018-08-06T04:59:23.860Z,66.33
2018-08-06T05:00:34.062Z,66.04
2018-08-06T05:01:44.227Z,66.61
2018-08-06T05:02:54.373Z,66.71
2018-08-06T05:04:04.522Z,66.04
2018-08-06T05:05:14.655Z,66.14
2018-08-06T05:06:24.905Z,66.33
2018-08-06T05:07:34.861Z,66.33
2018-08-06T05:08:45.013Z,66.42
2018-08-06T05:09:55.239Z,66.42
2018-08-06T05:11:05.431Z,66.23
2018-08-06T05:12:15.070Z,66.04
2018-08-06T05:13:25.259Z,66.14
2018-08-06T05:14:35.488Z,66.14
2018-08-06T05:15:45.692Z,66.23
2018-08-06T05:16:55.860Z,66.52
2018-08-06T05:18:06.001Z,66.33
2018-08-06T05:19:16.161Z,66.42
2018-08-06T05:20:26.386Z,66.46
2018-08-06T05:21:36.580Z,65.97
2018-08-06T05:22:47.065Z,66.17
2018-08-06T05:23:57.262Z,66.17
2018-08-06T05:25:07.471Z,66.07
2018-08-06T05:26:17.725Z,66.17
2018-08-06T05:27:27.863Z,65.97
2018-08-06T05:28:38.000Z,65.88
2018-08-06T05:29:48.124Z,65.88
2018-08-06T05:30:58.021Z,65.88
2018-08-06T05:32:08.140Z,65.72
2018-08-06T05:33:18.308Z,65.53
2018-08-06T05:34:28.185Z,65.14
2018-08-06T05:35:38.302Z,65.33
2018-08-06T05:36:48.437Z,64.76
2018-08-06T05:37:58.583Z,64.76
2018-08-06T05:39:08.738Z,65.05
2018-08-06T05:40:20.070Z,64.98
2018-08-06T05:41:30.253Z,64.4
2018-08-06T05:42:40.108Z,64.79
2018-08-06T05:43:49.969Z,64.5
2018-08-06T05:45:00.090Z,64.31
2018-08-06T05:46:10.252Z,64.02
2018-08-06T05:47:20.644Z,64.12
2018-08-06T05:48:31.003Z,64.02
2018-08-06T05:49:41.219Z,63.54
2018-08-06T05:50:51.450Z,63.54
2018-08-06T05:52:01.592Z,63.47
2018-08-06T05:53:11.741Z,63.28
2018-08-06T05:54:21.885Z,63.18
2018-08-06T05:55:32.015Z,63.28
2018-08-06T05:56:42.156Z,63.09
2018-08-06T05:57:52.403Z,63.09
2018-08-06T05:59:02.341Z,63.09
2018-08-06T06:00:12.458Z,62.9
2018-08-06T06:01:22.614Z,63.28
2018-08-06T06:02:33.760Z,63.38
2018-08-06T06:03:43.572Z,63.09
2018-08-06T06:04:53.744Z,62.8
2018-08-06T06:06:03.924Z,63.12
2018-08-06T06:07:14.085Z,62.63
2018-08-06T06:08:24.350Z,62.73
2018-08-06T06:09:34.537Z,62.93
2018-08-06T06:10:44.793Z,63.02
2018-08-06T06:11:54.991Z,62.93
2018-08-06T06:13:05.166Z,62.73
2018-08-06T06:14:16.389Z,62.83
2018-08-06T06:15:26.644Z,62.73
2018-08-06T06:16:36.552Z,62.63
2018-08-06T06:17:46.686Z,62.57
2018-08-06T06:18:56.827Z,62.83
2018-08-06T06:20:07.053Z,62.66
2018-08-06T06:21:17.239Z,62.09
2018-08-06T06:22:27.194Z,61.99
2018-08-06T06:23:37.325Z,62.28
2018-08-06T06:24:46.930Z,62.09
2018-08-06T06:25:57.469Z,61.99
2018-08-06T06:27:07.732Z,61.8
2018-08-06T06:28:17.860Z,61.99
2018-08-06T06:29:28.074Z,61.99
2018-08-06T06:30:38.009Z,61.99
2018-08-06T06:31:48.379Z,62.09
2018-08-06T06:32:58.510Z,62.18
2018-08-06T06:34:08.688Z,61.99
2018-08-06T06:35:18.833Z,61.74
2018-08-06T06:36:28.708Z,62.12
2018-08-06T06:37:39.085Z,61.83
2018-08-06T06:38:49.228Z,61.64
2018-08-06T06:39:59.627Z,61.83
2018-08-06T06:41:10.010Z,62.12
2018-08-06T06:42:20.143Z,61.74
2018-08-06T06:43:30.269Z,61.93
2018-08-06T06:44:40.387Z,61.44
2018-08-06T06:45:50.487Z,61.35
2018-08-06T06:47:00.908Z,61.44
2018-08-06T06:48:11.041Z,61.54
2018-08-06T06:49:21.259Z,61.35
2018-08-06T06:50:31.390Z,61.44
2018-08-06T06:51:40.901Z,61.16
2018-08-06T06:52:51.025Z,61.25
2018-08-06T06:54:01.195Z,61.25
2018-08-06T06:55:11.353Z,60.96
2018-08-06T06:56:21.501Z,60.68
2018-08-06T06:57:31.718Z,60.96
2018-08-06T06:58:41.983Z,61.16
2018-08-06T06:59:51.704Z,60.61
2018-08-06T07:01:02.045Z,60.8
2018-08-06T07:02:12.377Z,60.89
2018-08-06T07:03:22.275Z,60.41
2018-08-06T07:04:32.406Z,60.89
2018-08-06T07:05:42.588Z,60.89
2018-08-06T07:06:53.700Z,60.71
2018-08-06T07:08:03.842Z,60.71
2018-08-06T07:09:13.982Z,60.89
2018-08-06T07:10:23.862Z,60.51
2018-08-06T07:11:33.862Z,60.61
2018-08-06T07:12:44.032Z,60.41
2018-08-06T07:13:54.241Z,60.41
2018-08-06T07:15:04.902Z,60.71
2018-08-06T07:16:15.241Z,60.61
2018-08-06T07:17:25.434Z,60.31
2018-08-06T07:18:35.625Z,60.71
2018-08-06T07:19:45.859Z,60.41
2018-08-06T07:20:56.210Z,60.71
2018-08-06T07:22:06.357Z,60.71
2018-08-06T07:23:16.849Z,60.31
2018-08-06T07:24:26.980Z,60.31
2018-08-06T07:25:37.840Z,60.41
2018-08-06T07:26:47.970Z,60.61
2018-08-06T07:27:58.109Z,60.03
2018-08-06T07:29:08.357Z,60.22
2018-08-06T07:30:18.499Z,60.13
2018-08-06T07:31:28.619Z,59.93
2018-08-06T07:32:38.773Z,59.58
2018-08-06T07:33:49.150Z,59.67
2018-08-06T07:34:59.539Z,59.45
2018-08-06T07:36:09.348Z,59.86
2018-08-06T07:37:19.700Z,59.58
2018-08-06T07:38:29.921Z,59.58
2018-08-06T07:39:40.160Z,60.03
2018-08-06T07:40:50.311Z,59.58
2018-08-06T07:42:00.474Z,59.28
2018-08-06T07:43:10.280Z,59.38
2018-08-06T07:44:20.878Z,59.48
2018-08-06T07:45:30.983Z,59.77
2018-08-06T07:46:41.155Z,59
2018-08-06T07:47:51.061Z,59
2018-08-06T07:49:01.458Z,58.8
2018-08-06T07:50:11.411Z,58.9
2018-08-06T07:51:21.589Z,58.61
2018-08-06T07:52:31.456Z,58.9
2018-08-06T07:53:41.907Z,58.51
2018-08-06T07:54:52.045Z,58.51
2018-08-06T07:56:01.902Z,58.51
2018-08-06T07:57:12.054Z,58.12
2018-08-06T07:58:22.219Z,58.35
2018-08-06T07:59:32.415Z,57.38
2018-08-06T08:00:42.335Z,57.67
2018-08-06T08:01:52.195Z,57.77
2018-08-06T08:03:02.326Z,57.77
2018-08-06T08:04:12.521Z,57.96
2018-08-06T08:05:22.785Z,57.57
2018-08-06T08:06:33.016Z,57.29
2018-08-06T08:07:43.172Z,56.9
2018-08-06T08:08:53.387Z,56.83
2018-08-06T08:10:03.036Z,56.83
2018-08-06T08:11:13.175Z,56.25
2018-08-06T08:12:23.355Z,55.87
2018-08-06T08:13:33.712Z,56.15
2018-08-06T08:14:43.588Z,55.67
2018-08-06T08:15:53.711Z,55.67
2018-08-06T08:17:03.909Z,55.29
2018-08-06T08:18:13.709Z,55.21
2018-08-06T08:19:23.931Z,54.93
2018-08-06T08:20:34.226Z,54.83
2018-08-06T08:21:44.362Z,54.63
2018-08-06T08:22:54.492Z,55.11
2018-08-06T08:24:04.621Z,54.17
2018-08-06T08:25:14.777Z,53.59
2018-08-06T08:26:24.924Z,53.79
2018-08-06T08:27:35.057Z,53.53
2018-08-06T08:28:45.212Z,53.23
2018-08-06T08:29:55.378Z,53.17
2018-08-06T08:31:05.790Z,52.68
2018-08-06T08:32:15.929Z,52.49
2018-08-06T08:33:26.080Z,51.84
2018-08-06T08:34:36.300Z,52.03
2018-08-06T08:35:46.572Z,51.47
2018-08-06T08:36:56.759Z,51.18
2018-08-06T08:38:06.960Z,50.62
2018-08-06T08:39:17.151Z,49.87
2018-08-06T08:40:26.773Z,49.15
2018-08-06T08:41:36.979Z,47.86
2018-08-06T08:42:47.137Z,46.44
2018-08-06T08:43:57.055Z,45.49
2018-08-06T08:45:07.233Z,44.27
2018-08-06T08:46:17.445Z,42.65
2018-08-06T08:47:27.681Z,40.92
2018-08-06T08:48:37.592Z,40.17
2018-08-06T08:49:47.772Z,38.82
2018-08-06T08:50:57.941Z,37.98
2018-08-06T08:52:07.850Z,37.41
2018-08-06T08:53:18.981Z,37.04
2018-08-06T08:54:29.137Z,36.47
2018-08-06T08:55:39.274Z,36.19
2018-08-06T08:56:49.446Z,35.62
2018-08-06T08:57:59.701Z,35.52
2018-08-06T08:59:09.481Z,34.77
2018-08-06T09:00:19.670Z,33.89
2018-08-06T09:01:29.866Z,33.1
2018-08-06T09:02:40.127Z,32.04
2018-08-06T09:03:50.320Z,31.94
2018-08-06T09:05:00.207Z,31.26
2018-08-06T09:06:10.407Z,31.18
2018-08-06T09:07:20.715Z,30.49
2018-08-06T09:08:31.364Z,29.82
2018-08-06T09:09:41.531Z,29.72
2018-08-06T09:10:51.694Z,29.43
2018-08-06T09:12:02.047Z,29.72
2018-08-06T09:13:12.199Z,29.52
2018-08-06T09:14:22.348Z,29.33
2018-08-06T09:15:32.248Z,28.85
2018-08-06T09:16:42.394Z,28.95
2018-08-06T09:17:52.605Z,28.55
2018-08-06T09:19:02.525Z,28.65
2018-08-06T09:20:12.705Z,28.65
2018-08-06T09:21:22.874Z,28.54
2018-08-06T09:22:33.068Z,28.34
2018-08-06T09:23:44.646Z,28.34
2018-08-06T09:24:57.256Z,28.54
2018-08-06T09:26:07.428Z,28.24
2018-08-06T09:27:17.316Z,27.75
2018-08-06T09:28:27.208Z,27.75
2018-08-06T09:29:37.585Z,27.66
2018-08-06T09:30:47.781Z,27.56
2018-08-06T09:31:58.043Z,27.45
2018-08-06T09:33:08.286Z,27.16
2018-08-06T09:34:18.600Z,27.05
2018-08-06T09:35:28.837Z,26.85
2018-08-06T09:36:39.002Z,26.64
2018-08-06T09:37:49.166Z,26.54
2018-08-06T09:38:59.327Z,26.84
2018-08-06T09:40:09.594Z,26.75
2018-08-06T09:41:20.007Z,26.45
2018-08-06T09:42:30.183Z,27.42
2018-08-06T09:43:40.076Z,27.99
2018-08-06T09:44:50.219Z,27.99
2018-08-06T09:46:01.100Z,27.99
2018-08-06T09:47:11.313Z,28.09
2018-08-06T09:48:21.480Z,27.99
2018-08-06T09:49:31.678Z,27.98
2018-08-06T09:50:41.841Z,27.99
2018-08-06T09:51:51.877Z,27.99
2018-08-06T09:53:02.185Z,28.09
2018-08-06T09:54:12.017Z,27.31
2018-08-06T09:55:22.168Z,28.09
2018-08-06T09:56:32.323Z,27.88
2018-08-06T09:57:42.492Z,27.87
2018-08-06T09:58:52.630Z,27.97
2018-08-06T10:00:02.558Z,28.06
2018-08-06T10:01:13.725Z,27.98
2018-08-06T10:02:23.704Z,27.31
2018-08-06T10:03:33.941Z,26.81
2018-08-06T10:04:43.881Z,26.91
2018-08-06T10:05:54.090Z,27.02
2018-08-06T10:07:05.316Z,27.11
2018-08-06T10:08:16.197Z,26.72
2018-08-06T10:09:27.370Z,26.62
2018-08-06T10:10:37.531Z,26.23
2018-08-06T10:11:47.425Z,26.52
2018-08-06T10:12:57.465Z,26.81
2018-08-06T10:14:07.615Z,26.23
2018-08-06T10:15:17.558Z,26.53
2018-08-06T10:16:27.723Z,26.63
2018-08-06T10:17:37.869Z,26.53
2018-08-06T10:18:48.240Z,26.54
2018-08-06T10:19:58.858Z,26.45
2018-08-06T10:21:09.084Z,26.25
2018-08-06T10:22:19.306Z,26.45
2018-08-06T10:25:59.661Z,26.08
2018-08-06T10:27:12.403Z,25.88
2018-08-06T10:28:22.580Z,25.96
2018-08-06T10:29:32.730Z,25.96
2018-08-06T10:30:43.106Z,25.96
2018-08-06T10:31:53.296Z,25.67
2018-08-06T10:33:03.500Z,26.25
2018-08-06T10:34:13.662Z,26.35
2018-08-06T10:35:23.830Z,26.15
2018-08-06T10:36:34.005Z,26.36
2018-08-06T10:37:44.211Z,26.26
2018-08-06T10:38:54.430Z,26.07
2018-08-06T10:40:04.601Z,25.87
2018-08-06T10:41:14.941Z,25.87
2018-08-06T10:42:24.899Z,25.48
2018-08-06T10:43:35.086Z,24.98
2018-08-06T10:44:45.263Z,25.37
2018-08-06T10:45:55.450Z,25.27
2018-08-06T10:47:05.595Z,25.26
2018-08-06T10:48:16.826Z,25.65
2018-08-06T10:49:27.564Z,25.45
2018-08-06T10:50:37.739Z,25.17
2018-08-06T10:51:47.894Z,24.97
2018-08-06T10:52:58.109Z,24.69
2018-08-06T10:54:08.319Z,24.79
2018-08-06T10:55:18.492Z,24.7
2018-08-06T10:56:28.673Z,24.6
2018-08-06T10:57:39.021Z,24.7
2018-08-06T10:58:49.268Z,24.8
2018-08-06T10:59:59.151Z,24.7
2018-08-06T11:01:09.355Z,23.83
2018-08-06T11:02:19.820Z,24.12
2018-08-06T11:03:30.009Z,24.02
2018-08-06T11:04:40.300Z,24.12
2018-08-06T11:05:50.232Z,23.93
2018-08-06T11:07:00.267Z,23.93
2018-08-06T11:08:10.473Z,24.3
2018-08-06T11:09:20.746Z,24.21
2018-08-06T11:10:30.959Z,24.49
2018-08-06T11:11:41.142Z,24.59
2018-08-06T11:12:51.580Z,24.68
2018-08-06T11:14:01.440Z,25.07
2018-08-06T11:15:11.859Z,24.76
2018-08-06T11:16:22.056Z,24.85
2018-08-06T11:17:32.206Z,25.23
2018-08-06T11:18:42.134Z,25.12
2018-08-06T11:19:52.382Z,25.03
2018-08-06T11:21:02.554Z,24.93
2018-08-06T11:22:12.756Z,24.85
2018-08-06T11:23:22.955Z,25.15
2018-08-06T11:24:33.153Z,24.95
2018-08-06T11:25:43.344Z,25.16
2018-08-06T11:26:53.575Z,24.87
2018-08-06T11:28:03.829Z,24.87
2018-08-06T11:29:13.995Z,24.79
2018-08-06T11:30:24.224Z,24.4
2018-08-06T11:31:34.477Z,24.58
2018-08-06T11:32:44.688Z,24.38
2018-08-06T11:33:54.917Z,24.57
2018-08-06T11:35:05.168Z,24.86
2018-08-06T11:36:16.294Z,24.76
2018-08-06T11:37:26.558Z,24.85
2018-08-06T11:38:36.997Z,24.75
2018-08-06T11:39:46.834Z,24.85
2018-08-06T11:40:56.999Z,24.66
2018-08-06T11:42:07.154Z,23.88
2018-08-06T11:43:17.539Z,24.48
2018-08-06T11:44:27.771Z,24.1
2018-08-06T11:45:37.796Z,24.19
2018-08-06T11:46:48.015Z,24.21
2018-08-06T11:47:58.174Z,24.3
2018-08-06T11:49:08.148Z,23.43
2018-08-06T11:50:18.103Z,23.43
2018-08-06T11:51:28.280Z,22.85
2018-08-06T11:52:38.476Z,22.67
2018-08-06T11:53:48.711Z,22.56
2018-08-06T11:54:58.906Z,22.56
2018-08-06T11:56:09.221Z,22.46
2018-08-06T11:57:19.429Z,22.56
2018-08-06T11:58:29.341Z,22.74
2018-08-06T11:59:39.529Z,22.45
2018-08-06T12:00:49.474Z,22.45
2018-08-06T12:02:00.091Z,22.64
2018-08-06T12:03:10.449Z,22.55
2018-08-06T12:04:20.696Z,21.76
2018-08-06T12:05:30.649Z,21.86
2018-08-06T12:06:41.311Z,21.95
2018-08-06T12:07:51.549Z,22.15
2018-08-06T12:09:02.951Z,21.94
2018-08-06T12:10:15.007Z,21.86
2018-08-06T12:11:26.571Z,21.66
2018-08-06T12:12:36.652Z,21.86
2018-08-06T12:13:47.094Z,22.05
2018-08-06T12:14:57.047Z,21.66
2018-08-06T12:16:07.345Z,21.46
2018-08-06T12:17:17.650Z,21.26
2018-08-06T12:18:27.929Z,21.07
2018-08-06T12:19:38.170Z,21.56
2018-08-06T12:20:48.445Z,21.36
2018-08-06T12:21:59.021Z,21.66
2018-08-06T12:23:09.266Z,21.07
2018-08-06T12:24:19.502Z,21.07
2018-08-06T12:25:29.855Z,21.55
2018-08-06T12:26:40.155Z,21.55
2018-08-06T12:27:50.468Z,21.75
2018-08-06T12:29:00.738Z,21.66
2018-08-06T12:30:11.029Z,22.05
2018-08-06T12:31:21.295Z,21.84
2018-08-06T12:32:31.715Z,21.75
2018-08-06T12:33:42.035Z,21.84
2018-08-06T12:34:52.269Z,21.94
2018-08-06T12:36:02.290Z,21.64
2018-08-06T12:37:12.513Z,21.94
2018-08-06T12:38:22.800Z,21.92
2018-08-06T12:39:33.251Z,21.83
2018-08-06T12:40:43.324Z,21.63
2018-08-06T12:41:53.706Z,21.72
2018-08-06T12:43:03.930Z,22.3
2018-08-06T12:44:14.202Z,21.9
2018-08-06T12:45:24.463Z,22.49
2018-08-06T12:46:34.651Z,22.3
2018-08-06T12:47:44.981Z,22.58
2018-08-06T12:48:55.203Z,22.48
2018-08-06T12:50:05.380Z,22.17
2018-08-06T12:51:15.599Z,22.48
2018-08-06T12:52:25.900Z,23.16
2018-08-06T12:53:36.227Z,23.45
2018-08-06T12:54:46.513Z,23.84
2018-08-06T12:55:56.780Z,24.14
2018-08-06T12:57:07.141Z,24.14
2018-08-06T12:58:17.932Z,24.14
2018-08-06T12:59:28.186Z,23.74
2018-08-06T13:00:38.411Z,24.13
2018-08-06T13:01:48.257Z,23.72
2018-08-06T13:02:58.501Z,24.7
2018-08-06T13:04:08.778Z,24.6
2018-08-06T13:05:19.031Z,24.98
2018-08-06T13:06:29.522Z,24.98
2018-08-06T13:07:39.779Z,24.79
2018-08-06T13:08:50.016Z,24.59
2018-08-06T13:10:00.334Z,24.79
2018-08-06T13:11:10.198Z,24.58
2018-08-06T13:12:20.539Z,24.48
2018-08-06T13:13:31.733Z,24.97
2018-08-06T13:14:42.031Z,24.66
2018-08-06T13:15:52.288Z,24.47
2018-08-06T13:17:02.720Z,24.27
2018-08-06T13:18:13.054Z,24.47
2018-08-06T13:19:23.747Z,24.57
2018-08-06T13:20:33.715Z,25.15
2018-08-06T13:21:43.980Z,25.05
2018-08-06T13:22:54.096Z,24.55
2018-08-06T13:24:04.322Z,24.74
2018-08-06T13:25:15.593Z,24.84
2018-08-06T13:26:25.792Z,25.15
2018-08-06T13:27:35.699Z,25.43
2018-08-06T13:28:45.615Z,25.82
2018-08-06T13:29:55.626Z,25.52
2018-08-06T13:31:05.809Z,25.43
2018-08-06T13:32:16.095Z,25.23
2018-08-06T13:33:25.784Z,25.02
2018-08-06T13:34:36.117Z,25.12
2018-08-06T13:35:46.279Z,25.22
2018-08-06T13:36:56.591Z,25.22
2018-08-06T13:38:07.303Z,24.92
2018-08-06T13:39:17.606Z,25.22
2018-08-06T13:40:27.607Z,25.12
2018-08-06T13:41:37.879Z,24.92
2018-08-06T13:42:49.040Z,25.13
2018-08-06T13:43:59.376Z,24.93
2018-08-06T13:45:09.546Z,24.93
2018-08-06T13:46:19.799Z,24.84
2018-08-06T13:47:29.989Z,25.04
2018-08-06T13:48:40.241Z,25.43
2018-08-06T13:49:50.483Z,25.81
2018-08-06T13:51:00.721Z,25.9
2018-08-06T13:52:10.893Z,26.31
2018-08-06T13:53:21.225Z,26.29
2018-08-06T13:54:31.595Z,26.4
2018-08-06T13:55:41.778Z,25.72
2018-08-06T13:56:51.998Z,25.23
2018-08-06T13:58:02.188Z,25.12
2018-08-06T13:59:12.494Z,24.73
2018-08-06T14:00:23.122Z,25.22
2018-08-06T14:01:33.290Z,24.92
2018-08-06T14:02:43.484Z,25.22
2018-08-06T14:03:53.411Z,25.02
2018-08-06T14:05:03.596Z,25.22
2018-08-06T14:06:13.769Z,25.22
2018-08-06T14:07:23.965Z,25.12
2018-08-06T14:08:34.131Z,25.22
2018-08-06T14:09:44.342Z,24.82
2018-08-06T14:10:54.540Z,25.12
2018-08-06T14:12:04.706Z,25.13
2018-08-06T14:13:14.874Z,25.42
2018-08-06T14:14:25.080Z,25.71
2018-08-06T14:15:34.987Z,25.71
2018-08-06T14:16:45.205Z,25.22
2018-08-06T14:17:55.315Z,25.22
2018-08-06T14:19:05.494Z,25.32
2018-08-06T14:20:15.882Z,25.02
2018-08-06T14:21:26.063Z,25.12
2018-08-06T14:22:36.067Z,25.5
2018-08-06T14:23:46.363Z,26.2
2018-08-06T14:24:56.628Z,25.89
2018-08-06T14:26:06.872Z,25.6
2018-08-06T14:27:17.056Z,25.71
2018-08-06T14:28:27.251Z,25.7
2018-08-06T14:29:37.432Z,25.51
2018-08-06T14:30:47.617Z,25.89
2018-08-06T14:31:57.936Z,25.61
2018-08-06T14:33:08.154Z,25.11
2018-08-06T14:34:18.027Z,25.11
2018-08-06T14:35:28.507Z,24.91
2018-08-06T14:36:38.824Z,24.91
2018-08-06T14:37:49.021Z,25.01
2018-08-06T14:38:59.200Z,25.21
2018-08-06T14:40:09.438Z,25.01
2018-08-06T14:41:19.586Z,24.91
2018-08-06T14:42:29.770Z,25.31
2018-08-06T14:43:39.966Z,25.31
2018-08-06T14:44:50.140Z,25.49
2018-08-06T14:46:00.339Z,25.59
2018-08-06T14:47:10.546Z,25.79
2018-08-06T14:48:20.498Z,25.7
2018-08-06T14:49:30.796Z,25.99
2018-08-06T14:50:41.040Z,25.7
2018-08-06T14:51:51.520Z,25.5
2018-08-06T14:53:01.441Z,25.5
2018-08-06T14:54:11.865Z,25.79
2018-08-06T14:55:22.095Z,25.7
2018-08-06T14:56:32.252Z,25.5
2018-08-06T14:57:42.406Z,25.7
2018-08-06T14:58:52.647Z,25.21
2018-08-06T15:00:02.825Z,25.31
2018-08-06T15:01:13.035Z,25.11
2018-08-06T15:02:23.356Z,25.21
2018-08-06T15:03:33.788Z,25.11
2018-08-06T15:04:44.047Z,25.01
2018-08-06T15:05:54.246Z,25.31
2018-08-06T15:07:04.679Z,25.31
2018-08-06T15:08:14.937Z,25.11
2018-08-06T15:09:25.056Z,25.01